Coy City, Texas
Current Conditions -  °F | °C
As of 6:15 PM on Sunday 23 Nov 2014 (Local Time) from KPEZ Reporting Station
Clear Clear  
Wind Chill: 72°   Ceiling: Unl
Heat Index: 72°   Visibility: 10mi
Dew Point: 44°   Wind: 5mph
Humidity: 37%   Direction: 230°SW
Pressure: 29.63"   Gusts: NA
Location:  28.8496°N, 97.9656°W
Report Text: KPEZ 240015Z AUTO 23004KT 10SM CLR 22/07 A2963 RMK AO2 T02210066
Loading
Personal Weather Stations






























Interactive Weather Map New forecast layout! Learn more

10-Day Weather Forecast

Advertisements
Track Severe Weather on mobile